Time;durP1;ratioP1;P1;durP2;ratioP2;P2;SDS_P1;SDS_P2;PMS_P1;PMS_P2;Temp;Humidity;BMP_temperature;BMP_pressure;BME280_temperature;BME280_humidity;BME280_pressure;Samples;Min_cycle;Max_cycle;Signal;HPM_P1;HPM_P2
2021/12/31 00:04:47;;;;;;;16.50;9.37;;;;;;;6.75;100.00;100129.03;10501374;28;20223;-69
2021/12/31 00:09:50;;;;;;;14.90;7.83;;;;;;;6.93;100.00;100111.00;10581685;28;20215;-65
2021/12/31 00:14:55;;;;;;;17.73;8.93;;;;;;;7.03;100.00;100106.69;10581356;28;20293;-68
2021/12/31 00:20:03;;;;;;;13.17;8.00;;;;;;;7.12;100.00;100105.84;10580488;28;20210;-67
2021/12/31 00:25:07;;;;;;;17.30;8.17;;;;;;;7.29;100.00;100135.94;10581469;28;20306;-71
2021/12/31 00:30:12;;;;;;;16.77;8.50;;;;;;;7.30;100.00;100141.97;10580672;28;20259;-65
2021/12/31 00:35:15;;;;;;;18.90;9.47;;;;;;;7.32;100.00;100135.06;10571179;28;20242;-66
2021/12/31 00:40:19;;;;;;;16.90;9.50;;;;;;;7.35;100.00;100132.50;10538445;28;20234;-66
2021/12/31 00:45:25;;;;;;;20.60;10.80;;;;;;;7.36;100.00;100141.94;10538435;28;20673;-67
2021/12/31 00:50:29;;;;;;;18.03;10.10;;;;;;;7.35;100.00;100140.25;10538773;28;20251;-67
2021/12/31 00:55:32;;;;;;;18.73;11.07;;;;;;;7.37;100.00;100143.69;10538463;28;20219;-68
2021/12/31 01:00:37;;;;;;;19.77;11.63;;;;;;;7.39;100.00;100139.34;10538473;28;20322;-71
2021/12/31 01:05:41;;;;;;;22.50;11.40;;;;;;;7.40;100.00;100146.25;10548060;28;20700;-67
2021/12/31 01:10:44;;;;;;;19.27;11.33;;;;;;;7.28;100.00;100149.72;10226185;28;10001047;-66
2021/12/31 01:15:50;;;;;;;21.40;11.47;;;;;;;7.37;100.00;100147.09;10540637;28;20708;-68
2021/12/31 01:20:53;;;;;;;22.33;11.67;;;;;;;7.33;100.00;100136.78;10541393;28;20215;-67
2021/12/31 01:25:56;;;;;;;24.00;11.83;;;;;;;7.37;100.00;100130.78;10541011;28;20243;-66
2021/12/31 01:31:01;;;;;;;19.50;10.50;;;;;;;7.32;100.00;100132.47;10545076;28;20558;-69
2021/12/31 01:36:05;;;;;;;19.20;10.30;;;;;;;7.37;100.00;100128.19;10548593;28;20211;-67
2021/12/31 01:41:09;;;;;;;21.87;9.70;;;;;;;7.38;100.00;100133.34;10548166;28;20237;-68
2021/12/31 01:46:13;;;;;;;16.87;9.57;;;;;;;7.42;100.00;100136.78;10548482;28;20211;-66
2021/12/31 01:51:17;;;;;;;20.53;9.77;;;;;;;7.53;100.00;100124.72;10547806;28;20223;-66
2021/12/31 01:56:26;;;;;;;18.30;9.87;;;;;;;7.49;100.00;100144.50;10548005;28;20222;-67
2021/12/31 02:01:30;;;;;;;19.70;10.23;;;;;;;7.47;100.00;100146.22;10547817;28;20310;-68
2021/12/31 02:06:34;;;;;;;17.40;9.50;;;;;;;7.49;100.00;100149.69;10547254;28;20718;-67
2021/12/31 02:11:38;;;;;;;15.80;8.53;;;;;;;7.56;100.00;100153.97;10547035;28;20219;-63
2021/12/31 02:16:42;;;;;;;20.43;10.73;;;;;;;7.58;100.00;100141.06;10546886;28;20278;-63
2021/12/31 02:21:47;;;;;;;16.97;9.57;;;;;;;7.57;100.00;100118.69;10546776;28;20502;-65
2021/12/31 02:26:51;;;;;;;17.43;9.83;;;;;;;7.59;100.00;100120.38;10546381;28;20207;-67
2021/12/31 02:31:54;;;;;;;15.50;8.03;;;;;;;7.57;100.00;100126.44;10546223;28;20241;-67
2021/12/31 02:36:59;;;;;;;17.17;10.07;;;;;;;7.54;100.00;100136.78;10546028;28;20665;-69
2021/12/31 02:42:02;;;;;;;18.73;9.83;;;;;;;7.48;100.00;100136.78;10544982;28;20235;-63
2021/12/31 02:47:07;;;;;;;22.37;11.53;;;;;;;7.41;100.00;100135.94;10545777;28;20198;-67
2021/12/31 02:52:13;;;;;;;16.97;9.70;;;;;;;7.28;100.00;100149.72;10545974;28;20216;-66
2021/12/31 02:57:20;;;;;;;18.20;8.70;;;;;;;7.27;100.00;100147.09;10545408;28;20191;-66
2021/12/31 03:02:24;;;;;;;17.33;9.20;;;;;;;7.42;100.00;100137.63;10544955;28;20525;-67
2021/12/31 03:07:31;;;;;;;16.00;9.10;;;;;;;7.50;100.00;100148.84;10545025;28;20632;-64
2021/12/31 03:12:34;;;;;;;17.60;8.30;;;;;;;7.46;100.00;100136.78;10545012;28;20219;-65
2021/12/31 03:17:41;;;;;;;17.93;9.47;;;;;;;7.58;100.00;100149.66;10544647;28;20204;-66
2021/12/31 03:22:45;;;;;;;17.57;9.10;;;;;;;7.44;100.00;100132.50;10544268;28;20649;-65
2021/12/31 03:27:48;;;;;;;15.37;8.67;;;;;;;7.49;100.00;100134.19;10544277;28;20274;-66
2021/12/31 03:32:52;;;;;;;17.23;8.57;;;;;;;7.57;100.00;100142.81;10544123;28;20545;-67
2021/12/31 03:37:56;;;;;;;16.63;9.13;;;;;;;7.53;100.00;100143.66;10543892;28;20195;-65
2021/12/31 03:42:59;;;;;;;14.80;8.83;;;;;;;7.58;100.00;100151.38;10543454;28;20233;-64
2021/12/31 03:48:03;;;;;;;14.87;8.83;;;;;;;7.58;100.00;100144.50;10543900;28;20666;-71
2021/12/31 03:53:08;;;;;;;18.13;10.50;;;;;;;7.60;100.00;100132.47;10543315;28;20219;-68
2021/12/31 03:58:11;;;;;;;20.63;9.37;;;;;;;7.70;100.00;100123.81;10543014;28;20195;-68
2021/12/31 04:03:14;;;;;;;14.60;8.43;;;;;;;7.78;100.00;100126.41;10542990;28;20195;-72
2021/12/31 04:08:19;;;;;;;15.07;8.17;;;;;;;7.87;100.00;100127.22;10542756;28;20490;-71
2021/12/31 04:13:22;;;;;;;14.87;7.37;;;;;;;7.93;100.00;100128.94;10542852;28;20674;-68
2021/12/31 04:18:26;;;;;;;13.67;7.77;;;;;;;8.04;100.00;100127.19;10542713;28;20197;-69
2021/12/31 04:23:33;;;;;;;13.77;7.50;;;;;;;8.09;100.00;100128.84;10542582;28;20195;-72
2021/12/31 04:28:37;;;;;;;18.00;8.93;;;;;;;8.09;100.00;100140.94;10542371;28;20237;-65
2021/12/31 04:33:40;;;;;;;12.40;7.47;;;;;;;8.11;100.00;100123.69;10542115;28;20657;-68
2021/12/31 04:38:45;;;;;;;16.23;8.90;;;;;;;8.12;100.00;100123.69;10541946;28;20219;-69
2021/12/31 04:43:48;;;;;;;14.03;8.60;;;;;;;8.16;100.00;100135.72;10541939;28;20239;-69
2021/12/31 04:48:51;;;;;;;20.30;9.50;;;;;;;8.19;100.00;100151.25;10542089;28;20231;-67
2021/12/31 04:53:55;;;;;;;13.70;7.67;;;;;;;8.24;100.00;100151.25;10541714;28;20229;-71
2021/12/31 04:58:59;;;;;;;16.40;8.73;;;;;;;8.27;100.00;100153.81;10540621;28;20298;-66
2021/12/31 05:04:02;;;;;;;12.07;7.20;;;;;;;8.32;100.00;100146.06;10542104;28;20219;-65
2021/12/31 05:09:07;;;;;;;14.00;7.93;;;;;;;8.43;100.00;100139.94;10549368;28;20207;-68
2021/12/31 05:14:10;;;;;;;14.93;7.20;;;;;;;8.51;100.00;100138.16;10545845;28;20559;-69
2021/12/31 05:19:13;;;;;;;15.75;8.25;;;;;;;8.58;100.00;100136.41;10548232;28;20759;-67
2021/12/31 05:24:18;;;;;;;82.80;37.90;;;;;;;8.74;100.00;100145.81;10548899;28;20238;-68
2021/12/31 05:29:21;;;;;;;14.67;7.73;;;;;;;8.68;100.00;100130.34;10541941;28;20234;-69
2021/12/31 05:34:24;;;;;;;12.63;7.43;;;;;;;8.58;100.00;100137.28;10545049;28;20212;-65
2021/12/31 05:39:29;;;;;;;11.27;6.27;;;;;;;8.59;100.00;100146.78;10544751;28;20594;-65
2021/12/31 05:44:32;;;;;;;12.03;6.60;;;;;;;8.60;100.00;100135.53;10544106;28;20298;-67
2021/12/31 05:49:36;;;;;;;12.27;7.03;;;;;;;8.82;100.00;100128.50;10546231;28;20211;-70
2021/12/31 05:54:40;;;;;;;12.57;6.27;;;;;;;8.73;100.00;100139.75;10546464;28;20223;-68
2021/12/31 05:59:43;;;;;;;13.87;7.07;;;;;;;8.78;100.00;100145.78;10542231;28;20225;-67
2021/12/31 06:04:46;;;;;;;12.57;7.73;;;;;;;8.71;100.00;100144.09;10544235;28;20298;-66
2021/12/31 06:09:51;;;;;;;11.67;7.30;;;;;;;8.78;100.00;100139.75;10540620;28;20557;-67
2021/12/31 06:14:58;;;;;;;14.73;7.40;;;;;;;8.84;100.00;100127.63;10540639;28;20219;-66
2021/12/31 06:20:01;;;;;;;19.07;11.40;;;;;;;8.78;100.00;100122.50;10529503;28;20244;-69
2021/12/31 06:25:07;;;;;;;12.27;7.47;;;;;;;8.95;100.00;100125.84;10545652;28;20226;-65
2021/12/31 06:30:12;;;;;;;11.60;6.87;;;;;;;8.91;100.00;100116.38;10543303;28;20290;-67
2021/12/31 06:35:15;;;;;;;13.13;7.07;;;;;;;8.90;100.00;100135.34;10543508;28;20649;-65
2021/12/31 06:40:20;;;;;;;10.80;6.67;;;;;;;8.94;100.00;100134.44;10537940;28;20227;-65
2021/12/31 06:45:23;;;;;;;9.80;6.17;;;;;;;8.92;100.00;100120.66;10544788;28;20214;-66
2021/12/31 06:50:26;;;;;;;10.17;5.90;;;;;;;8.90;100.00;100129.31;10545323;28;20537;-68
2021/12/31 06:55:32;;;;;;;11.57;6.17;;;;;;;9.00;100.00;100136.13;10545354;28;20228;-67
2021/12/31 07:00:36;;;;;;;10.40;5.90;;;;;;;8.96;100.00;100126.66;10544653;28;20215;-67
2021/12/31 07:05:41;;;;;;;31.13;20.37;;;;;;;9.15;100.00;100129.13;10544888;28;20273;-68
2021/12/31 07:10:45;;;;;;;10.37;5.40;;;;;;;9.13;100.00;100143.78;10541419;28;20295;-68
2021/12/31 07:15:50;;;;;;;8.07;4.63;;;;;;;9.13;100.00;100138.63;10535768;28;20251;-66
2021/12/31 07:20:53;;;;;;;9.27;4.63;;;;;;;9.21;100.00;100146.34;10540950;28;20645;-63
2021/12/31 07:25:58;;;;;;;42.80;23.87;;;;;;;9.30;100.00;100147.09;10543158;28;20245;-65
2021/12/31 07:31:01;;;;;;;75.57;36.23;;;;;;;9.33;100.00;100165.22;10542945;28;20673;-70
2021/12/31 07:36:05;;;;;;;9.53;4.37;;;;;;;9.36;100.00;100148.78;10542729;28;20299;-71
2021/12/31 07:41:10;;;;;;;8.27;4.03;;;;;;;9.29;100.00;100162.66;10542394;28;20223;-69
2021/12/31 07:46:13;;;;;;;8.63;4.60;;;;;;;9.30;100.00;100159.22;10539895;28;20235;-65
2021/12/31 07:51:17;;;;;;;93.73;52.60;;;;;;;9.41;100.00;100153.91;10542246;28;20211;-68
2021/12/31 07:56:21;;;;;;;29.70;15.63;;;;;;;9.43;100.00;100160.81;10542253;28;20215;-68
2021/12/31 08:01:24;;;;;;;9.63;5.23;;;;;;;9.35;100.00;100158.28;10535221;28;20211;-69
2021/12/31 08:06:28;;;;;;;6.83;3.70;;;;;;;9.44;100.00;100146.16;10541780;28;20221;-66
2021/12/31 08:11:33;;;;;;;68.50;39.63;;;;;;;9.52;100.00;100152.97;10539012;28;20219;-65
2021/12/31 08:16:36;;;;;;;7.77;4.07;;;;;;;9.54;100.00;100158.13;10541694;28;20225;-66
2021/12/31 08:21:39;;;;;;;6.10;3.20;;;;;;;9.54;100.00;100160.72;10541379;28;20770;-67
2021/12/31 08:26:44;;;;;;;33.53;18.50;;;;;;;9.54;100.00;100155.53;10541533;28;20215;-66
2021/12/31 08:31:47;;;;;;;8.53;4.37;;;;;;;9.57;100.00;100156.38;10542008;28;20234;-67
2021/12/31 08:36:50;;;;;;;19.50;10.73;;;;;;;9.51;100.00;100153.81;10541439;28;20223;-70
2021/12/31 08:41:55;;;;;;;5.97;2.60;;;;;;;9.54;100.00;100151.22;10543488;28;20676;-64
2021/12/31 08:47:00;;;;;;;5.13;2.40;;;;;;;9.56;100.00;100156.38;10547699;28;20211;-64
2021/12/31 08:52:03;;;;;;;50.03;28.67;;;;;;;9.57;100.00;100143.41;10549414;28;20211;-68
2021/12/31 08:57:08;;;;;;;6.53;2.33;;;;;;;9.61;100.00;100144.25;10547117;28;20225;-68
2021/12/31 09:02:13;;;;;;;9.60;2.50;;;;;;;9.59;100.00;100146.84;10194593;27;10000401;-70
2021/12/31 09:07:16;;;;;;;6.33;2.20;;;;;;;9.68;100.00;100143.31;10544521;28;20226;-66
2021/12/31 09:12:21;;;;;;;5.13;2.20;;;;;;;9.68;100.00;100144.16;10536833;28;20223;-67
2021/12/31 09:17:24;;;;;;;5.00;2.20;;;;;;;9.73;100.00;100144.13;10546158;28;20237;-68
2021/12/31 09:22:27;;;;;;;5.53;2.57;;;;;;;9.73;100.00;100131.16;10546583;28;20211;-67
2021/12/31 09:27:33;;;;;;;7.50;3.87;;;;;;;9.69;100.00;100138.13;10545070;28;20247;-68
2021/12/31 09:32:36;;;;;;;8.03;2.60;;;;;;;9.75;100.00;100137.19;10544647;28;20211;-69
2021/12/31 09:37:40;;;;;;;7.10;2.40;;;;;;;9.70;100.00;100139.81;10544608;28;20243;-67
2021/12/31 09:42:53;;;;;;;16.13;8.37;;;;;;;9.65;100.00;100135.56;10543977;28;20293;-68
2021/12/31 09:47:59;;;;;;;6.77;2.73;;;;;;;9.76;100.00;100133.72;10544498;28;20229;-62
2021/12/31 09:53:03;;;;;;;10.33;3.67;;;;;;;9.71;100.00;100127.72;10542507;28;20211;-65
2021/12/31 09:58:10;;;;;;;7.60;2.83;;;;;;;9.78;100.00;100126.78;10542810;28;20223;-66
2021/12/31 10:03:15;;;;;;;5.93;2.50;;;;;;;9.79;100.00;100125.91;10569040;28;20225;-66
2021/12/31 10:08:21;;;;;;;7.33;3.03;;;;;;;9.83;100.00;100127.59;10545475;28;20683;-66
2021/12/31 10:13:26;;;;;;;5.43;2.40;;;;;;;9.84;100.00;100121.53;10544072;28;20737;-65
2021/12/31 10:18:31;;;;;;;5.70;2.90;;;;;;;9.86;100.00;100107.69;10542212;28;20188;-65
2021/12/31 10:23:38;;;;;;;5.90;3.00;;;;;;;9.96;100.00;100103.25;10540160;28;20188;-70
2021/12/31 10:28:59;;;;;;;6.67;3.27;;;;;;;10.06;100.00;100097.09;10540304;28;20222;-67
2021/12/31 10:34:04;;;;;;;6.23;3.73;;;;;;;10.24;100.00;100099.47;10540195;28;20219;-67
2021/12/31 10:39:20;;;;;;;6.63;3.73;;;;;;;10.16;100.00;100094.38;10542700;28;20546;-65
2021/12/31 10:44:25;;;;;;;9.33;3.90;;;;;;;10.15;100.00;100091.81;10542351;28;20218;-67
2021/12/31 10:49:29;;;;;;;7.57;3.73;;;;;;;10.22;100.00;100089.13;10542051;28;20212;-66
2021/12/31 10:54:44;;;;;;;10.07;5.90;;;;;;;10.23;100.00;100090.81;10542208;28;20223;-75
2021/12/31 10:59:50;;;;;;;7.83;3.90;;;;;;;10.30;100.00;100086.44;10541528;28;20222;-66
2021/12/31 11:04:53;;;;;;;14.33;8.77;;;;;;;10.30;100.00;100089.03;10579662;28;20222;-68
2021/12/31 11:09:58;;;;;;;7.50;5.10;;;;;;;10.30;100.00;100086.44;10583880;28;20293;-66
2021/12/31 11:15:04;;;;;;;7.77;5.07;;;;;;;10.34;100.00;100080.31;10583409;28;20301;-65
2021/12/31 11:20:09;;;;;;;9.17;5.23;;;;;;;10.37;100.00;100080.28;10583176;28;20217;-66
2021/12/31 11:25:25;;;;;;;8.57;5.33;;;;;;;10.39;100.00;100065.53;10582947;28;20605;-67
2021/12/31 11:30:37;;;;;;;9.83;6.20;;;;;;;10.39;100.00;100052.56;10582825;28;20679;-65
2021/12/31 11:35:44;;;;;;;8.93;6.27;;;;;;;10.37;100.00;100046.56;10582866;28;20230;-66
2021/12/31 11:40:50;;;;;;;8.57;5.80;;;;;;;10.42;100.00;100043.00;10582241;28;20235;-67
2021/12/31 11:46:42;;;;;;;12.13;6.67;;;;;;;10.48;100.00;100037.75;10582067;28;20214;-65
2021/12/31 11:52:10;;;;;;;11.77;6.90;;;;;;;10.51;100.00;100039.41;10582131;28;20438;-64
2021/12/31 11:57:19;;;;;;;10.47;6.37;;;;;;;10.55;100.00;100046.28;10578540;28;20218;-67
2021/12/31 12:02:34;;;;;;;11.00;7.13;;;;;;;10.56;100.00;100041.97;10564258;28;20564;-66
2021/12/31 12:07:40;;;;;;;9.23;7.20;;;;;;;10.59;100.00;100036.72;10539365;28;20223;-63
2021/12/31 12:12:49;;;;;;;10.20;7.57;;;;;;;10.61;100.00;100033.22;10539248;28;20321;-66
2021/12/31 12:17:53;;;;;;;9.77;7.07;;;;;;;10.61;100.00;100028.03;10538894;28;20306;-65
2021/12/31 12:22:57;;;;;;;10.20;7.20;;;;;;;10.61;100.00;100046.22;10539096;28;20555;-66
2021/12/31 12:28:04;;;;;;;10.80;6.87;;;;;;;10.63;100.00;100044.41;10538872;28;20314;-68
2021/12/31 12:33:16;;;;;;;13.13;7.93;;;;;;;10.64;100.00;100040.09;10538982;28;20290;-68
2021/12/31 12:38:23;;;;;;;12.70;8.30;;;;;;;10.65;100.00;100032.28;10538705;28;20211;-67
2021/12/31 12:43:28;;;;;;;13.77;8.03;;;;;;;10.72;100.00;100036.50;10538452;28;20573;-68
2021/12/31 12:48:34;;;;;;;17.70;9.00;;;;;;;10.72;100.00;100033.91;10538310;28;20692;-67
2021/12/31 12:53:41;;;;;;;11.90;7.80;;;;;;;10.72;100.00;100033.91;10538546;28;20219;-67
2021/12/31 12:58:48;;;;;;;11.80;7.90;;;;;;;10.69;100.00;100033.97;10538322;28;20237;-71
2021/12/31 13:03:53;;;;;;;13.53;9.30;;;;;;;10.72;100.00;100033.91;10187085;27;9999897;-69
2021/12/31 13:09:06;;;;;;;10.73;7.90;;;;;;;10.75;100.00;100027.81;10537928;28;20560;-67
2021/12/31 13:14:14;;;;;;;10.13;6.73;;;;;;;10.81;100.00;100027.69;10538216;28;20298;-67
2021/12/31 13:19:28;;;;;;;9.90;7.53;;;;;;;10.81;100.00;100022.50;10538061;28;20207;-68
2021/12/31 13:24:33;;;;;;;11.47;7.70;;;;;;;10.79;100.00;100030.31;10537990;28;20281;-67
2021/12/31 13:29:39;;;;;;;12.97;7.80;;;;;;;10.83;100.00;100021.63;10545712;28;20395;-69
2021/12/31 13:34:44;;;;;;;11.23;7.50;;;;;;;10.85;100.00;100012.06;10545166;28;20352;-69
2021/12/31 13:39:50;;;;;;;12.33;7.67;;;;;;;10.79;100.00;99999.19;10544548;28;20679;-69
2021/12/31 13:44:53;;;;;;;12.27;7.37;;;;;;;10.81;100.00;100001.75;10545134;28;20828;-68
2021/12/31 13:49:58;;;;;;;11.80;6.77;;;;;;;10.80;100.00;100007.84;10544782;28;20224;-69
2021/12/31 13:55:17;;;;;;;11.80;8.10;;;;;;;10.80;100.00;99993.13;10544646;28;20314;-67
2021/12/31 14:00:25;;;;;;;9.67;7.00;;;;;;;10.81;100.00;100000.00;10547601;28;20210;-70
2021/12/31 14:05:30;;;;;;;10.87;7.17;;;;;;;10.78;100.00;99992.28;10586054;28;20232;-69
2021/12/31 14:10:36;;;;;;;10.40;7.20;;;;;;;10.78;100.00;100007.88;10586487;28;20221;-70
2021/12/31 14:15:42;;;;;;;9.50;7.00;;;;;;;10.71;100.00;100014.03;10586006;28;20605;-67
2021/12/31 14:20:46;;;;;;;10.30;7.20;;;;;;;10.69;100.00;100007.13;10585743;28;20211;-68
2021/12/31 14:25:53;;;;;;;12.53;7.70;;;;;;;10.63;100.00;100018.47;10585665;28;20668;-68
2021/12/31 14:30:56;;;;;;;12.17;8.30;;;;;;;10.61;100.00;100009.88;10585217;28;20602;-66
2021/12/31 14:36:01;;;;;;;12.93;8.07;;;;;;;10.63;100.00;100015.03;10584394;28;20313;-67
2021/12/31 14:41:21;;;;;;;10.77;7.87;;;;;;;10.64;100.00;100021.94;10584648;28;20702;-70
2021/12/31 14:46:25;;;;;;;12.37;8.23;;;;;;;10.66;100.00;100008.06;10584734;28;20216;-70
2021/12/31 14:51:29;;;;;;;11.73;7.60;;;;;;;10.61;100.00;100017.66;10584304;28;20229;-68
2021/12/31 14:56:33;;;;;;;11.23;7.77;;;;;;;10.61;100.00;100015.06;10584582;28;20215;-69
2021/12/31 15:01:37;;;;;;;12.33;8.30;;;;;;;10.63;100.00;100023.66;10570009;28;20254;-68
2021/12/31 15:06:41;;;;;;;9.40;6.37;;;;;;;10.61;100.00;100004.69;10541611;28;20230;-68
2021/12/31 15:11:48;;;;;;;12.23;9.40;;;;;;;10.60;100.00;100004.69;10541598;28;20565;-68
2021/12/31 15:16:52;;;;;;;13.73;7.57;;;;;;;10.62;100.00;100001.19;10541251;28;20848;-70
2021/12/31 15:21:56;;;;;;;11.87;7.57;;;;;;;10.66;100.00;99995.09;10541249;28;20253;-68
2021/12/31 15:27:03;;;;;;;12.37;7.27;;;;;;;10.64;100.00;99985.59;10540588;28;20233;-67
2021/12/31 15:32:08;;;;;;;16.43;7.27;;;;;;;10.72;100.00;99973.34;10540744;28;20243;-68
2021/12/31 15:37:12;;;;;;;9.33;6.70;;;;;;;10.79;100.00;99995.72;10540712;28;20303;-66
2021/12/31 15:42:17;;;;;;;10.03;7.10;;;;;;;10.79;100.00;99988.78;10539949;28;20231;-66
2021/12/31 15:47:20;;;;;;;10.27;5.90;;;;;;;10.75;100.00;99963.75;10539653;28;20603;-68
2021/12/31 15:52:27;;;;;;;11.30;7.30;;;;;;;10.74;100.00;99971.59;10540107;28;20219;-67
2021/12/31 15:57:32;;;;;;;11.60;6.83;;;;;;;10.80;100.00;99974.09;10538863;28;20707;-67
2021/12/31 16:02:35;;;;;;;8.80;6.40;;;;;;;10.83;100.00;99959.31;10561351;28;20229;-67
2021/12/31 16:07:39;;;;;;;9.63;6.10;;;;;;;10.90;100.00;99958.31;10561354;28;20227;-67
2021/12/31 16:12:44;;;;;;;11.53;5.50;;;;;;;10.98;100.00;99950.38;10539285;28;20219;-64
2021/12/31 16:17:50;;;;;;;12.87;5.67;;;;;;;10.95;100.00;99937.47;10539437;28;20227;-68
2021/12/31 16:22:53;;;;;;;10.83;6.27;;;;;;;10.98;100.00;99956.44;10538894;28;20274;-71
2021/12/31 16:27:58;;;;;;;10.67;5.80;;;;;;;10.97;100.00;99952.13;10536588;28;20268;-66
2021/12/31 16:33:01;;;;;;;9.20;5.80;;;;;;;10.99;100.00;99946.91;10539043;28;20219;-69
2021/12/31 16:38:06;;;;;;;153.97;81.60;;;;;;;11.06;100.00;99951.94;10538692;28;20222;-74
2021/12/31 16:43:10;;;;;;;9.30;5.60;;;;;;;11.08;100.00;99946.75;10538690;28;20319;-71
2021/12/31 16:48:13;;;;;;;9.90;5.40;;;;;;;10.96;100.00;99934.84;10538469;28;20211;-71
2021/12/31 16:53:17;;;;;;;8.03;5.07;;;;;;;10.99;100.00;99932.16;10538509;28;20215;-73
2021/12/31 16:58:22;;;;;;;11.20;5.57;;;;;;;10.92;100.00;99929.75;10538395;28;20336;-70
2021/12/31 17:03:26;;;;;;;10.77;5.70;;;;;;;10.94;100.00;99921.00;10568744;28;20229;-69
2021/12/31 17:08:29;;;;;;;9.20;5.33;;;;;;;11.00;100.00;99920.91;10536921;28;20211;-71
2021/12/31 17:13:34;;;;;;;10.17;4.77;;;;;;;11.01;100.00;99909.63;10539275;28;20187;-68
2021/12/31 17:18:37;;;;;;;9.07;5.73;;;;;;;11.02;100.00;99923.47;10543525;28;20221;-67
2021/12/31 17:23:42;;;;;;;12.13;5.40;;;;;;;10.98;100.00;99916.63;10547799;28;20655;-68
2021/12/31 17:28:46;;;;;;;9.50;5.07;;;;;;;11.00;100.00;99905.34;10547527;28;20222;-68
2021/12/31 17:33:49;;;;;;;11.17;5.37;;;;;;;10.95;100.00;99914.97;10548582;28;20202;-68
2021/12/31 17:38:53;;;;;;;9.30;5.10;;;;;;;10.99;100.00;99908.81;10548765;28;20196;-68
2021/12/31 17:43:57;;;;;;;8.23;4.70;;;;;;;11.10;100.00;99916.38;10544872;28;20223;-67
2021/12/31 17:49:05;;;;;;;11.63;5.07;;;;;;;11.05;100.00;99911.28;10538958;28;20216;-68
2021/12/31 17:54:09;;;;;;;8.57;4.30;;;;;;;11.07;100.00;99911.25;10541165;28;20218;-69
2021/12/31 17:59:14;;;;;;;9.13;4.97;;;;;;;11.05;100.00;99907.84;10545519;28;20191;-69
2021/12/31 18:04:17;;;;;;;8.90;4.93;;;;;;;11.09;100.00;99909.50;10546267;28;20264;-69
2021/12/31 18:09:20;;;;;;;9.63;5.17;;;;;;;11.08;100.00;99893.06;10546983;28;20290;-67
2021/12/31 18:14:25;;;;;;;107.90;65.33;;;;;;;11.07;100.00;99900.88;10546964;28;20187;-68
2021/12/31 18:19:29;;;;;;;10.23;4.87;;;;;;;11.15;100.00;99901.56;10546905;28;20197;-70
2021/12/31 18:24:33;;;;;;;9.87;4.53;;;;;;;11.10;100.00;99906.00;10546661;28;20701;-69
2021/12/31 18:29:38;;;;;;;15.60;8.63;;;;;;;11.31;100.00;99906.44;10546664;28;20215;-70
2021/12/31 18:34:44;;;;;;;8.33;4.10;;;;;;;11.35;100.00;99904.63;10180104;27;9999760;-70
2021/12/31 18:39:47;;;;;;;9.37;4.83;;;;;;;11.25;100.00;99896.16;10538754;28;20569;-68
2021/12/31 18:44:52;;;;;;;9.07;4.93;;;;;;;11.24;100.00;99910.06;10542075;28;20212;-69
2021/12/31 18:50:03;;;;;;;15.83;8.83;;;;;;;11.19;100.00;99893.72;10542346;28;20227;-69
2021/12/31 18:55:06;;;;;;;10.47;4.80;;;;;;;11.23;100.00;99907.50;10542257;28;20219;-67
2021/12/31 19:00:13;;;;;;;31.53;15.90;;;;;;;11.22;100.00;99896.22;10541959;28;20353;-67
2021/12/31 19:05:17;;;;;;;14.77;6.77;;;;;;;11.30;100.00;99891.72;10541547;28;20215;-68
2021/12/31 19:10:21;;;;;;;17.30;9.20;;;;;;;11.33;100.00;99883.91;10541398;28;20231;-68
2021/12/31 19:15:26;;;;;;;15.60;8.23;;;;;;;11.23;100.00;99887.53;10541314;28;20540;-67
2021/12/31 19:20:49;;;;;;;20.03;10.20;;;;;;;11.15;100.00;99886.84;10541862;28;20220;-68
2021/12/31 19:25:53;;;;;;;58.77;34.30;;;;;;;11.17;100.00;99887.69;10538191;28;20218;-69
2021/12/31 19:30:58;;;;;;;9.87;4.60;;;;;;;11.36;100.00;99878.63;10539468;28;20298;-68
2021/12/31 19:36:02;;;;;;;10.80;5.00;;;;;;;11.28;100.00;99897.84;10577990;28;20221;-67
2021/12/31 19:41:05;;;;;;;9.17;4.93;;;;;;;11.14;100.00;99894.69;10582218;28;20230;-69
2021/12/31 19:46:10;;;;;;;9.37;5.57;;;;;;;10.92;100.00;99891.66;10582417;28;20213;-67
2021/12/31 19:51:13;;;;;;;68.57;39.47;;;;;;;10.91;100.00;99882.13;10582154;28;20596;-74
2021/12/31 19:56:17;;;;;;;9.23;4.43;;;;;;;10.82;100.00;99884.06;10581872;28;20219;-68
2021/12/31 20:01:22;;;;;;;13.77;6.83;;;;;;;10.69;100.00;99895.53;10582807;28;20244;-67
2021/12/31 20:06:25;;;;;;;12.17;5.40;;;;;;;10.64;100.00;99894.78;10582140;28;20217;-68
2021/12/31 20:11:28;;;;;;;10.67;5.13;;;;;;;10.55;100.00;99888.00;10581606;28;20552;-68
2021/12/31 20:16:33;;;;;;;12.33;5.50;;;;;;;10.53;100.00;99883.75;10581598;28;20244;-68
2021/12/31 20:21:36;;;;;;;14.20;6.47;;;;;;;10.41;100.00;99892.56;10581248;28;20211;-69
2021/12/31 20:26:40;;;;;;;9.07;5.20;;;;;;;10.40;100.00;99890.88;10581356;28;20223;-67
2021/12/31 20:31:44;;;;;;;67.97;38.77;;;;;;;10.44;100.00;99902.88;10580075;28;20237;-66
2021/12/31 20:36:48;;;;;;;22.63;12.30;;;;;;;10.54;100.00;99901.88;10543199;28;20272;-66
2021/12/31 20:41:51;;;;;;;11.50;6.00;;;;;;;10.49;100.00;99893.31;10547596;28;20227;-67
2021/12/31 20:46:56;;;;;;;11.23;5.60;;;;;;;10.55;100.00;99902.72;10547049;28;20682;-69
2021/12/31 20:52:00;;;;;;;39.93;23.17;;;;;;;10.56;100.00;99914.81;10547094;28;20717;-75
2021/12/31 20:57:05;;;;;;;10.97;5.23;;;;;;;10.72;100.00;99900.66;10547332;28;20736;-69
2021/12/31 21:02:11;;;;;;;15.23;5.83;;;;;;;10.62;100.00;99914.69;10546756;28;20254;-68
2021/12/31 21:07:14;;;;;;;13.03;5.33;;;;;;;10.61;100.00;99919.06;10546571;28;20550;-69
2021/12/31 21:12:19;;;;;;;9.70;5.10;;;;;;;10.56;100.00;99923.44;10546518;28;20548;-68
2021/12/31 21:17:24;;;;;;;8.60;4.63;;;;;;;10.54;100.00;99925.22;10546016;28;20233;-68
2021/12/31 21:22:28;;;;;;;12.87;5.73;;;;;;;10.57;100.00;99922.56;10546245;28;20222;-69
2021/12/31 21:27:31;;;;;;;21.00;10.70;;;;;;;10.56;100.00;99915.66;10545626;28;20231;-67
2021/12/31 21:32:36;;;;;;;16.87;9.00;;;;;;;10.62;100.00;99925.94;10553939;28;20225;-70
2021/12/31 21:37:40;;;;;;;9.40;5.83;;;;;;;10.64;100.00;99918.13;10588358;28;20313;-70
2021/12/31 21:42:43;;;;;;;10.20;5.47;;;;;;;10.65;100.00;99917.25;10587180;28;20275;-68
2021/12/31 21:47:48;;;;;;;10.30;5.87;;;;;;;10.61;100.00;99937.22;10586760;28;20219;-68
2021/12/31 21:52:52;;;;;;;9.37;5.77;;;;;;;10.68;100.00;99932.78;10587236;28;20269;-69
2021/12/31 21:57:55;;;;;;;9.00;4.70;;;;;;;10.67;100.00;99912.88;10586745;28;20307;-67
2021/12/31 22:03:00;;;;;;;10.50;5.53;;;;;;;10.66;100.00;99922.41;10586719;28;20237;-68
2021/12/31 22:08:03;;;;;;;8.50;5.07;;;;;;;10.71;100.00;99919.72;10586110;28;20313;-68
2021/12/31 22:13:07;;;;;;;16.07;9.97;;;;;;;10.78;100.00;99921.34;10585662;28;20222;-67
2021/12/31 22:18:12;;;;;;;22.63;13.53;;;;;;;10.98;100.00;99916.63;10586315;27;20218;-68
2021/12/31 22:23:16;;;;;;;12.17;6.13;;;;;;;10.77;100.00;99949.03;10585846;28;20298;-67
2021/12/31 22:28:19;;;;;;;10.43;5.27;;;;;;;10.77;100.00;99932.63;10585579;28;20218;-67
2021/12/31 22:33:24;;;;;;;78.23;42.40;;;;;;;10.73;100.00;99929.22;10570315;28;20223;-64
2021/12/31 22:38:27;;;;;;;12.30;6.57;;;;;;;10.81;100.00;99916.09;10542921;28;20560;-68
2021/12/31 22:43:30;;;;;;;10.77;6.53;;;;;;;10.77;100.00;99941.22;10542848;28;20750;-68
2021/12/31 22:48:35;;;;;;;9.60;5.70;;;;;;;10.74;100.00;99936.09;10542321;28;20235;-67
2021/12/31 22:53:38;;;;;;;10.37;6.67;;;;;;;10.68;100.00;99940.56;10542367;28;20748;-67
2021/12/31 22:58:43;;;;;;;13.67;7.27;;;;;;;10.75;100.00;99953.38;10541507;28;20231;-67
2021/12/31 23:03:49;;;;;;;192.27;113.63;;;;;;;11.00;100.00;99957.28;10541844;28;20220;-70
2021/12/31 23:08:53;;;;;;;50.40;37.43;;;;;;;11.07;100.00;99953.69;10541742;28;20643;-70